Dades meteomassalio
Diari Summary for Diciembre 3, 2017 Units:  English    Metric   Both
« Previous Day
Next Day »
Diari Semanal Mensual Anual Personalitzat
  Maxima: Minima: Mijana:
Temperatura: TemperatureC °F -2.8 °F 3.4 °F
Rosada: DewpointC °F -9.5 °F -6.8 °F
Humitat: Humidity % 30 % 49 %
Velocitat del vent: WindSpeedKMH mph 1.9 mph 23 mph
Racha vent: WindSpeedGustKMH mph - -
Vent:- - NW
Pressio: PressurehPa in 1025.3 in -
Pluja: 0.0 in    
Historical Graphs
 
 
Tabular Data for Diciembre 3, 2017
Time Temperature Dew Point Pressure Wind Wind Speed Wind Gust Humidity Rainfall Rate (Hourly) solar Conditions
TemperatureC °F DewpointC °F PressurehPa in Calm     Humidity % HourlyPrecipMM in SolarRadiationWatts/m^2 W/m2 Conditions
00:04 1.1 °F -4.6 °F 1025.3 in WNW 33.3 mph 33.3 mph 66 % 0.0 in 0.0 W/m2 CLR
00:14 1.1 °F -4.6 °F 1025.3 in WNW 29.6 mph 29.6 mph 66 % 0.0 in 0.0 W/m2 CLR
00:19 1.1 °F -4.6 °F 1025.3 in NNW 24.1 mph 24.1 mph 66 % 0.0 in 0.0 W/m2 CLR
00:24 1.7 °F -4.0 °F 1025.6 in NW 18.5 mph 18.5 mph 66 % 0.0 in 0.0 W/m2 CLR
00:29 1.1 °F -4.6 °F 1025.6 in WNW 24.1 mph 24.1 mph 66 % 0.0 in 0.0 W/m2 CLR
00:34 1.1 °F -4.7 °F 1025.6 in NW 16.7 mph 16.7 mph 65 % 0.0 in 0.0 W/m2 CLR
00:39 1.1 °F -4.7 °F 1025.6 in NW 22.5 mph 22.5 mph 65 % 0.0 in 0.0 W/m2 CLR
00:49 1.1 °F -4.7 °F 1026.0 in NW 18.5 mph 18.5 mph 65 % 0.0 in 0.0 W/m2 CLR
01:05 1.1 °F -4.9 °F 1026.0 in West 18.5 mph 18.5 mph 64 % 0.0 in 0.0 W/m2 CLR
01:10 1.1 °F -5.2 °F 1026.0 in WNW 11.3 mph 11.4 mph 63 % 0.0 in 0.0 W/m2 CLR
01:15 1.1 °F -5.2 °F 1026.0 in WNW 16.1 mph 16.1 mph 63 % 0.0 in 0.0 W/m2 CLR
01:20 1.1 °F -5.2 °F 1026.3 in WNW 14.8 mph 14.8 mph 63 % 0.0 in 0.0 W/m2 CLR
01:25 1.1 °F -5.4 °F 1026.0 in West 18.5 mph 18.5 mph 62 % 0.0 in 0.0 W/m2 CLR
01:30 1.1 °F -5.4 °F 1026.0 in NW 19.3 mph 19.3 mph 62 % 0.0 in 0.0 W/m2 CLR
01:40 1.1 °F -5.6 °F 1026.0 in WNW 24.1 mph 24.1 mph 61 % 0.0 in 0.0 W/m2 CLR
01:45 1.1 °F -5.8 °F 1026.0 in NW 20.4 mph 20.4 mph 60 % 0.0 in 0.0 W/m2 CLR
01:55 1.1 °F -5.8 °F 1026.0 in NW 20.9 mph 20.9 mph 60 % 0.0 in 0.0 W/m2 CLR
02:00 1.1 °F -5.8 °F 1026.0 in NW 24.1 mph 24.1 mph 60 % 0.0 in 0.0 W/m2 CLR
02:05 1.1 °F -5.8 °F 1026.0 in NW 24.1 mph 24.1 mph 60 % 0.0 in 0.0 W/m2 CLR
02:10 1.1 °F -5.8 °F 1026.0 in NW 24.1 mph 24.1 mph 60 % 0.0 in 0.0 W/m2 CLR
02:15 1.1 °F -5.8 °F 1026.0 in NW 31.5 mph 31.5 mph 60 % 0.0 in 0.0 W/m2 CLR
02:20 1.1 °F -5.8 °F 1026.0 in NW 25.9 mph 25.9 mph 60 % 0.0 in 0.0 W/m2 CLR
02:25 1.1 °F -5.8 °F 1026.0 in NW 27.8 mph 27.8 mph 60 % 0.0 in 0.0 W/m2 CLR
02:35 1.1 °F -5.6 °F 1026.0 in WNW 25.9 mph 25.9 mph 61 % 0.0 in 0.0 W/m2 CLR
02:40 1.1 °F -5.6 °F 1026.3 in NW 22.2 mph 22.2 mph 61 % 0.0 in 0.0 W/m2 CLR
02:50 1.1 °F -5.8 °F 1026.3 in West 20.4 mph 20.4 mph 60 % 0.0 in 0.0 W/m2 CLR
03:00 1.1 °F -5.8 °F 1026.3 in WNW 20.4 mph 20.4 mph 60 % 0.0 in 0.0 W/m2 CLR
03:05 1.1 °F -5.8 °F 1026.3 in NW 18.5 mph 18.5 mph 60 % 0.0 in 0.0 W/m2 CLR
03:15 1.1 °F -5.8 °F 1026.6 in WNW 14.8 mph 14.8 mph 60 % 0.0 in 0.0 W/m2 CLR
03:20 1.1 °F -5.8 °F 1026.6 in WNW 11.1 mph 11.1 mph 60 % 0.0 in 0.0 W/m2 CLR
03:26 1.1 °F -5.8 °F 1026.6 in WNW 13.0 mph 13.0 mph 60 % 0.0 in 0.0 W/m2 CLR
03:31 1.1 °F -5.8 °F 1026.6 in WNW 14.8 mph 14.8 mph 60 % 0.0 in 0.0 W/m2 CLR
03:36 1.1 °F -5.8 °F 1026.6 in NNW 14.8 mph 14.8 mph 60 % 0.0 in 0.0 W/m2 CLR
03:41 0.6 °F -6.1 °F 1026.6 in WNW 16.7 mph 16.7 mph 61 % 0.0 in 0.0 W/m2 CLR
03:47 1.1 °F -5.6 °F 1026.6 in WNW 18.5 mph 18.5 mph 61 % 0.0 in 0.0 W/m2 CLR
03:52 1.1 °F -5.6 °F 1026.6 in WNW 18.5 mph 18.5 mph 61 % 0.0 in 0.0 W/m2 CLR
03:57 1.1 °F -5.8 °F 1026.6 in WNW 20.4 mph 20.4 mph 60 % 0.0 in 0.0 W/m2 CLR
04:02 1.1 °F -5.6 °F 1026.6 in NW 22.5 mph 22.5 mph 61 % 0.0 in 0.0 W/m2 CLR
04:07 1.1 °F -5.6 °F 1027.0 in NW 25.9 mph 25.9 mph 61 % 0.0 in 0.0 W/m2 CLR
04:12 1.1 °F -5.6 °F 1027.0 in NW 18.5 mph 18.5 mph 61 % 0.0 in 0.0 W/m2 CLR
04:17 1.1 °F -5.6 °F 1027.0 in NW 24.1 mph 24.1 mph 61 % 0.0 in 0.0 W/m2 CLR
04:22 1.1 °F -5.6 °F 1026.6 in WNW 20.4 mph 20.4 mph 61 % 0.0 in 0.0 W/m2 CLR
04:27 1.1 °F -5.6 °F 1026.6 in WNW 24.1 mph 24.1 mph 61 % 0.0 in 0.0 W/m2 CLR
04:32 1.1 °F -5.6 °F 1026.6 in WNW 18.5 mph 18.5 mph 61 % 0.0 in 0.0 W/m2 CLR
04:37 1.1 °F -5.6 °F 1027.0 in WNW 24.1 mph 24.1 mph 61 % 0.0 in 0.0 W/m2 CLR
04:47 1.1 °F -5.8 °F 1027.0 in WNW 22.5 mph 22.5 mph 60 % 0.0 in 0.0 W/m2 CLR
05:07 1.1 °F -5.8 °F 1027.0 in WNW 20.4 mph 20.4 mph 60 % 0.0 in 0.0 W/m2 CLR
05:12 1.1 °F -5.8 °F 1027.0 in WNW 18.5 mph 18.5 mph 60 % 0.0 in 0.0 W/m2 CLR
05:17 1.1 °F -5.8 °F 1027.3 in WNW 29.6 mph 29.6 mph 60 % 0.0 in 0.0 W/m2 CLR
05:22 1.1 °F -6.0 °F 1027.3 in WNW 35.2 mph 35.2 mph 59 % 0.0 in 0.0 W/m2 CLR
05:27 1.1 °F -6.0 °F 1027.3 in WNW 22.2 mph 22.2 mph 59 % 0.0 in 0.0 W/m2 CLR
05:32 1.1 °F -6.0 °F 1027.3 in WSW 14.8 mph 14.8 mph 59 % 0.0 in 0.0 W/m2 CLR
05:37 1.1 °F -6.0 °F 1027.3 in WNW 13.0 mph 13.0 mph 59 % 0.0 in 0.0 W/m2 CLR
05:42 1.1 °F -5.8 °F 1027.3 in WNW 24.1 mph 24.1 mph 60 % 0.0 in 0.0 W/m2 CLR
05:47 0.6 °F -6.6 °F 1027.3 in WNW 18.5 mph 18.5 mph 59 % 0.0 in 0.0 W/m2 CLR
05:52 0.6 °F -6.6 °F 1027.3 in WNW 25.9 mph 25.9 mph 59 % 0.0 in 0.0 W/m2 CLR
06:02 0.6 °F -6.8 °F 1027.3 in WNW 24.1 mph 24.1 mph 58 % 0.0 in 0.0 W/m2 CLR
06:12 1.1 °F -6.2 °F 1027.3 in WNW 22.2 mph 22.2 mph 58 % 0.0 in 0.0 W/m2 CLR
06:17 1.1 °F -6.2 °F 1027.7 in West 24.1 mph 24.1 mph 58 % 0.0 in 0.0 W/m2 CLR
06:27 1.1 °F -6.5 °F 1027.7 in WNW 20.4 mph 20.4 mph 57 % 0.0 in 0.0 W/m2 CLR
06:32 1.1 °F -6.5 °F 1027.7 in WNW 25.9 mph 25.9 mph 57 % 0.0 in 0.0 W/m2 CLR
06:37 0.6 °F -7.0 °F 1027.7 in WNW 29.6 mph 29.6 mph 57 % 0.0 in 0.0 W/m2 CLR
06:42 1.1 °F -6.7 °F 1028.0 in WNW 27.8 mph 27.8 mph 56 % 0.0 in 0.0 W/m2 CLR
06:47 1.1 °F -6.7 °F 1028.0 in WNW 29.6 mph 29.6 mph 56 % 0.0 in 0.0 W/m2 CLR
06:52 0.6 °F -7.4 °F 1028.0 in WNW 27.8 mph 27.8 mph 55 % 0.0 in 0.0 W/m2 CLR
06:57 1.1 °F -6.9 °F 1028.0 in West 31.5 mph 31.5 mph 55 % 0.0 in 0.0 W/m2 CLR
07:07 1.1 °F -6.9 °F 1028.3 in NW 18.5 mph 18.5 mph 55 % 0.0 in 0.0 W/m2 CLR
07:17 1.1 °F -7.2 °F 1028.3 in NW 31.5 mph 31.5 mph 54 % 0.0 in 0.0 W/m2 CLR
07:22 1.1 °F -7.2 °F 1028.7 in NW 24.1 mph 24.1 mph 54 % 0.0 in 0.0 W/m2 CLR
07:28 1.1 °F -7.2 °F 1028.7 in West 22.2 mph 22.2 mph 54 % 0.0 in 0.0 W/m2 CLR
07:32 1.1 °F -7.2 °F 1028.7 in West 24.1 mph 24.5 mph 54 % 0.0 in 0.0 W/m2 CLR
07:38 1.1 °F -7.2 °F 1028.7 in NW 22.2 mph 22.2 mph 54 % 0.0 in 0.0 W/m2 CLR
07:43 1.1 °F -7.4 °F 1029.0 in NW 31.5 mph 31.5 mph 53 % 0.0 in 0.0 W/m2 CLR
07:48 1.1 °F -7.4 °F 1029.0 in NW 27.8 mph 27.8 mph 53 % 0.0 in 0.0 W/m2 CLR
07:53 1.1 °F -7.4 °F 1029.0 in WNW 31.5 mph 31.5 mph 53 % 0.0 in 0.0 W/m2 CLR
08:03 1.1 °F -7.7 °F 1029.0 in WNW 31.5 mph 31.5 mph 52 % 0.0 in 0.0 W/m2 OVC
08:08 1.1 °F -7.7 °F 1029.0 in WNW 24.1 mph 24.1 mph 52 % 0.0 in 5.0 W/m2 OVC
08:13 1.1 °F -7.7 °F 1029.0 in WNW 27.8 mph 27.8 mph 52 % 0.0 in 7.0 W/m2 BKN
08:18 1.1 °F -7.7 °F 1029.0 in NW 25.9 mph 25.9 mph 52 % 0.0 in 9.0 W/m2 BKN
08:23 1.1 °F -7.7 °F 1029.0 in NW 27.8 mph 27.8 mph 52 % 0.0 in 11.0 W/m2 BKN
08:28 1.7 °F -7.4 °F 1029.3 in NW 31.5 mph 31.5 mph 51 % 0.0 in 14.0 W/m2 BKN
08:38 1.7 °F -7.4 °F 1029.3 in WNW 31.5 mph 31.5 mph 51 % 0.0 in 21.0 W/m2 BKN
08:43 1.7 °F -7.7 °F 1029.7 in NW 31.5 mph 31.5 mph 50 % 0.0 in 32.0 W/m2 BKN
08:48 1.7 °F -7.7 °F 1029.7 in WNW 31.5 mph 31.5 mph 50 % 0.0 in 42.0 W/m2 BKN
08:53 1.7 °F -7.7 °F 1029.7 in NW 24.1 mph 24.1 mph 50 % 0.0 in 54.0 W/m2 SCT
08:58 1.7 °F -7.7 °F 1029.7 in WNW 25.9 mph 25.9 mph 50 % 0.0 in 65.0 W/m2 SCT
09:04 1.7 °F -7.7 °F 1029.7 in WNW 25.9 mph 25.9 mph 50 % 0.0 in 77.0 W/m2 FEW
09:14 2.2 °F -7.4 °F 1030.0 in WNW 25.9 mph 25.9 mph 49 % 0.0 in 83.0 W/m2 FEW
09:19 2.2 °F -7.4 °F 1030.0 in NNW 24.1 mph 24.1 mph 49 % 0.0 in 95.0 W/m2 FEW
09:24 2.2 °F -7.7 °F 1030.0 in WNW 19.3 mph 19.3 mph 48 % 0.0 in 132.0 W/m2 CLR
09:29 2.2 °F -7.7 °F 1030.0 in NW 18.5 mph 18.5 mph 48 % 0.0 in 146.0 W/m2 CLR
09:34 2.2 °F -7.9 °F 1030.4 in WNW 24.1 mph 24.1 mph 47 % 0.0 in 160.0 W/m2 CLR
09:39 2.8 °F -7.4 °F 1030.4 in West 29.6 mph 29.6 mph 47 % 0.0 in 176.0 W/m2 CLR
09:59 3.3 °F -7.2 °F 1030.7 in NW 18.5 mph 18.5 mph 46 % 0.0 in 158.0 W/m2 CLR
10:04 3.3 °F -7.5 °F 1030.7 in NW 29.6 mph 29.6 mph 45 % 0.0 in 239.0 W/m2 CLR
10:09 3.3 °F -7.5 °F 1030.7 in WNW 25.9 mph 25.9 mph 45 % 0.0 in 258.0 W/m2 CLR
10:19 3.9 °F -7.3 °F 1031.0 in NW 24.1 mph 24.1 mph 44 % 0.0 in 283.0 W/m2 CLR
10:24 3.9 °F -7.3 °F 1031.0 in NW 35.2 mph 35.2 mph 44 % 0.0 in 241.0 W/m2 CLR
10:30 3.9 °F -7.6 °F 1031.0 in NW 31.5 mph 31.5 mph 43 % 0.0 in 304.0 W/m2 CLR
10:35 3.9 °F -7.6 °F 1031.0 in WNW 29.6 mph 29.6 mph 43 % 0.0 in 316.0 W/m2 CLR
10:45 4.4 °F -7.4 °F 1031.4 in NNW 37.0 mph 37.0 mph 42 % 0.0 in 334.0 W/m2 CLR
10:50 4.4 °F -7.7 °F 1031.4 in NW 31.5 mph 31.5 mph 41 % 0.0 in 343.0 W/m2 CLR
10:55 4.4 °F -7.4 °F 1031.4 in NW 25.9 mph 25.9 mph 42 % 0.0 in 352.0 W/m2 CLR
11:00 4.4 °F -7.7 °F 1031.4 in NW 31.5 mph 31.5 mph 41 % 0.0 in 360.0 W/m2 CLR
11:05 5.0 °F -7.2 °F 1031.4 in NW 31.5 mph 31.5 mph 41 % 0.0 in 367.0 W/m2 CLR
11:10 5.0 °F -7.5 °F 1031.4 in NW 31.5 mph 31.5 mph 40 % 0.0 in 374.0 W/m2 CLR
11:15 5.0 °F -7.5 °F 1031.7 in NW 25.9 mph 25.9 mph 40 % 0.0 in 383.0 W/m2 CLR
11:20 5.0 °F -7.8 °F 1031.7 in WNW 25.7 mph 25.7 mph 39 % 0.0 in 392.0 W/m2 CLR
11:25 5.0 °F -7.8 °F 1031.7 in NW 31.5 mph 31.5 mph 39 % 0.0 in 397.0 W/m2 CLR
11:30 5.6 °F -7.3 °F 1031.7 in NW 31.5 mph 31.5 mph 39 % 0.0 in 403.0 W/m2 CLR
11:35 5.6 °F -7.3 °F 1031.7 in NNW 33.3 mph 33.3 mph 39 % 0.0 in 410.0 W/m2 CLR
11:40 5.6 °F -7.3 °F 1031.7 in NW 29.6 mph 29.6 mph 39 % 0.0 in 417.0 W/m2 CLR
11:45 5.6 °F -7.7 °F 1031.7 in NW 29.6 mph 29.6 mph 38 % 0.0 in 420.0 W/m2 CLR
11:50 5.6 °F -7.7 °F 1031.7 in NW 25.9 mph 25.9 mph 38 % 0.0 in 425.0 W/m2 CLR
11:55 6.1 °F -7.2 °F 1031.7 in NW 24.1 mph 24.1 mph 38 % 0.0 in 431.0 W/m2 CLR
12:00 6.1 °F -7.5 °F 1031.7 in NW 25.7 mph 25.7 mph 37 % 0.0 in 436.0 W/m2 CLR
12:05 6.1 °F -7.5 °F 1031.7 in NNW 29.6 mph 29.6 mph 37 % 0.0 in 441.0 W/m2 CLR
12:15 6.1 °F -7.9 °F 1031.7 in NW 25.9 mph 25.9 mph 36 % 0.0 in 436.0 W/m2 CLR
12:20 6.1 °F -7.9 °F 1031.4 in NNW 30.6 mph 30.6 mph 36 % 0.0 in 394.0 W/m2 CLR
12:25 6.7 °F -7.7 °F 1031.4 in NNW 35.2 mph 35.2 mph 35 % 0.0 in 452.0 W/m2 CLR
12:30 6.7 °F -7.4 °F 1031.4 in NW 31.5 mph 31.5 mph 36 % 0.0 in 457.0 W/m2 CLR
12:35 6.7 °F -7.7 °F 1031.4 in NW 42.6 mph 42.6 mph 35 % 0.0 in 457.0 W/m2 CLR
12:40 6.7 °F -7.7 °F 1031.4 in WNW 31.5 mph 31.5 mph 35 % 0.0 in 459.0 W/m2 CLR
12:45 6.7 °F -7.7 °F 1031.4 in NW 33.3 mph 33.3 mph 35 % 0.0 in 461.0 W/m2 CLR
12:50 7.2 °F -7.6 °F 1031.4 in WNW 20.9 mph 20.9 mph 34 % 0.0 in 415.0 W/m2 CLR
12:55 7.2 °F -7.6 °F 1031.0 in North 27.8 mph 27.8 mph 34 % 0.0 in 461.0 W/m2 CLR
13:00 7.2 °F -7.6 °F 1031.0 in NNW 27.8 mph 27.8 mph 34 % 0.0 in 438.0 W/m2 CLR
13:05 7.2 °F -7.2 °F 1031.0 in NW 25.9 mph 25.9 mph 35 % 0.0 in 459.0 W/m2 CLR
13:10 7.2 °F -7.6 °F 1031.0 in North 29.6 mph 29.6 mph 34 % 0.0 in 455.0 W/m2 CLR
13:16 7.8 °F -7.1 °F 1031.0 in NW 33.3 mph 33.3 mph 34 % 0.0 in 455.0 W/m2 CLR
13:21 7.8 °F -7.1 °F 1031.0 in NNW 29.0 mph 29.0 mph 34 % 0.0 in 450.0 W/m2 CLR
13:26 7.8 °F -7.5 °F 1030.7 in NW 27.8 mph 27.8 mph 33 % 0.0 in 446.0 W/m2 CLR
13:31 7.8 °F -7.5 °F 1030.7 in NNW 29.6 mph 29.6 mph 33 % 0.0 in 445.0 W/m2 CLR
13:36 7.8 °F -7.9 °F 1030.7 in NNW 33.3 mph 33.3 mph 32 % 0.0 in 443.0 W/m2 CLR
13:41 7.8 °F -7.9 °F 1031.0 in NW 27.8 mph 27.8 mph 32 % 0.0 in 439.0 W/m2 CLR
13:46 7.8 °F -7.9 °F 1030.7 in NNW 25.9 mph 25.9 mph 32 % 0.0 in 441.0 W/m2 CLR
13:51 8.3 °F -7.8 °F 1030.7 in North 29.6 mph 29.6 mph 31 % 0.0 in 448.0 W/m2 CLR
13:56 8.3 °F -7.8 °F 1030.7 in NNW 31.5 mph 31.5 mph 31 % 0.0 in 445.0 W/m2 CLR
14:01 8.3 °F -7.8 °F 1030.7 in NNW 31.5 mph 31.5 mph 31 % 0.0 in 431.0 W/m2 CLR
14:06 8.3 °F -7.8 °F 1030.7 in NNW 33.3 mph 33.3 mph 31 % 0.0 in 299.0 W/m2 CLR
14:11 8.3 °F -7.8 °F 1030.7 in NNW 27.8 mph 27.8 mph 31 % 0.0 in 411.0 W/m2 CLR
14:16 8.3 °F -7.8 °F 1030.7 in NNW 22.2 mph 22.2 mph 31 % 0.0 in 404.0 W/m2 CLR
14:21 8.9 °F -7.8 °F 1030.7 in North 31.5 mph 31.5 mph 30 % 0.0 in 397.0 W/m2 CLR
14:26 8.3 °F -8.3 °F 1030.7 in NNW 35.2 mph 35.2 mph 30 % 0.0 in 390.0 W/m2 CLR
14:31 8.3 °F -8.3 °F 1030.7 in NW 33.3 mph 33.3 mph 30 % 0.0 in 383.0 W/m2 CLR
14:36 8.9 °F -7.8 °F 1030.4 in North 29.0 mph 29.0 mph 30 % 0.0 in 374.0 W/m2 CLR
14:41 8.9 °F -7.8 °F 1030.7 in NW 31.5 mph 31.5 mph 30 % 0.0 in 366.0 W/m2 CLR
14:46 8.3 °F -8.3 °F 1030.7 in NNW 31.5 mph 31.5 mph 30 % 0.0 in 355.0 W/m2 CLR
14:51 8.3 °F -8.3 °F 1030.7 in NNW 29.6 mph 29.6 mph 30 % 0.0 in 348.0 W/m2 CLR
14:56 8.9 °F -7.3 °F 1030.7 in NW 29.6 mph 29.6 mph 31 % 0.0 in 339.0 W/m2 CLR
15:01 8.3 °F -7.8 °F 1030.7 in North 31.5 mph 31.5 mph 31 % 0.0 in 329.0 W/m2 CLR
15:06 8.3 °F -7.8 °F 1030.7 in NNW 31.5 mph 31.5 mph 31 % 0.0 in 318.0 W/m2 CLR
15:11 8.3 °F -7.8 °F 1030.4 in NNW 29.6 mph 29.6 mph 31 % 0.0 in 308.0 W/m2 CLR
15:16 8.3 °F -7.8 °F 1030.7 in WNW 24.1 mph 24.1 mph 31 % 0.0 in 299.0 W/m2 CLR
15:21 8.3 °F -7.8 °F 1030.7 in NW 33.3 mph 33.3 mph 31 % 0.0 in 287.0 W/m2 CLR
15:23 8.3 °F -7.8 °F 1030.7 in NNW 27.8 mph 27.8 mph 31 % 0.0 in 283.0 W/m2 CLR
15:28 8.3 °F -7.8 °F 1030.7 in NW 24.1 mph 24.1 mph 31 % 0.0 in 272.0 W/m2 CLR
15:33 8.3 °F -7.8 °F 1031.0 in NNW 29.6 mph 29.6 mph 31 % 0.0 in 258.0 W/m2 CLR
15:38 8.3 °F -7.8 °F 1030.7 in NNW 31.5 mph 31.5 mph 31 % 0.0 in 246.0 W/m2 CLR
15:43 8.3 °F -7.8 °F 1030.7 in NNW 29.6 mph 29.6 mph 31 % 0.0 in 232.0 W/m2 CLR
15:48 7.8 °F -7.9 °F 1030.7 in NW 27.8 mph 27.8 mph 32 % 0.0 in 220.0 W/m2 CLR
15:53 7.8 °F -7.9 °F 1030.7 in NNW 33.3 mph 33.3 mph 32 % 0.0 in 207.0 W/m2 CLR
15:58 7.8 °F -7.9 °F 1030.7 in NNW 29.6 mph 29.6 mph 32 % 0.0 in 193.0 W/m2 CLR
16:03 7.2 °F -8.4 °F 1030.7 in NNW 33.3 mph 33.3 mph 32 % 0.0 in 176.0 W/m2 CLR
16:08 7.2 °F -8.0 °F 1030.7 in NNW 29.6 mph 29.6 mph 33 % 0.0 in 160.0 W/m2 CLR
16:13 7.2 °F -8.0 °F 1031.0 in NNW 31.5 mph 31.5 mph 33 % 0.0 in 146.0 W/m2 CLR
16:14 7.2 °F -8.0 °F 1031.0 in NW 31.5 mph 31.5 mph 33 % 0.0 in 144.0 W/m2 CLR
16:19 7.2 °F -8.0 °F 1031.0 in NW 31.5 mph 31.5 mph 33 % 0.0 in 128.0 W/m2 CLR
16:24 7.2 °F -8.0 °F 1031.0 in NNW 27.8 mph 27.8 mph 33 % 0.0 in 114.0 W/m2 CLR
16:29 7.2 °F -8.0 °F 1031.0 in North 25.7 mph 25.7 mph 33 % 0.0 in 102.0 W/m2 CLR
16:34 7.2 °F -8.0 °F 1031.0 in NW 22.5 mph 22.5 mph 33 % 0.0 in 90.0 W/m2 CLR
16:39 6.7 °F -8.5 °F 1031.0 in NW 33.3 mph 33.3 mph 33 % 0.0 in 67.0 W/m2 FEW
16:44 6.7 °F -8.5 °F 1031.0 in NNW 31.5 mph 31.5 mph 33 % 0.0 in 53.0 W/m2 SCT
16:49 6.7 °F -8.1 °F 1030.7 in NNW 30.6 mph 30.6 mph 34 % 0.0 in 51.0 W/m2 SCT
16:54 6.7 °F -8.1 °F 1030.7 in NW 24.1 mph 24.1 mph 34 % 0.0 in 26.0 W/m2 BKN
16:59 6.1 °F -8.6 °F 1030.7 in NW 25.9 mph 25.9 mph 34 % 0.0 in 30.0 W/m2 BKN
17:04 6.1 °F -8.2 °F 1030.7 in NW 18.5 mph 18.5 mph 35 % 0.0 in 12.0 W/m2 BKN
17:09 6.1 °F -7.9 °F 1031.0 in NW 27.8 mph 27.8 mph 36 % 0.0 in 11.0 W/m2 BKN
17:14 6.1 °F -7.9 °F 1031.0 in NW 22.2 mph 22.2 mph 36 % 0.0 in 9.0 W/m2 BKN
17:19 6.1 °F -7.9 °F 1031.0 in NNW 27.4 mph 27.4 mph 36 % 0.0 in 7.0 W/m2 BKN
17:24 5.6 °F -8.4 °F 1031.0 in NW 20.4 mph 20.4 mph 36 % 0.0 in 5.0 W/m2 OVC
17:29 5.6 °F -8.7 °F 1031.0 in NW 31.5 mph 31.5 mph 35 % 0.0 in 5.0 W/m2 OVC
17:34 5.6 °F -8.7 °F 1031.0 in WNW 20.4 mph 20.4 mph 35 % 0.0 in 0.0 W/m2 OVC
17:39 5.6 °F -8.7 °F 1031.4 in NW 20.4 mph 20.4 mph 35 % 0.0 in 0.0 W/m2 OVC
17:44 5.0 °F -9.2 °F 1031.0 in WNW 18.5 mph 18.5 mph 35 % 0.0 in 0.0 W/m2 CLR
17:49 5.0 °F -9.2 °F 1031.0 in WNW 24.1 mph 24.1 mph 35 % 0.0 in 0.0 W/m2 CLR
17:54 5.0 °F -9.2 °F 1031.0 in NW 27.4 mph 27.4 mph 35 % 0.0 in 0.0 W/m2 CLR
17:59 5.0 °F -9.2 °F 1031.4 in WNW 18.5 mph 18.5 mph 35 % 0.0 in 0.0 W/m2 CLR
18:04 5.0 °F -9.2 °F 1031.4 in NW 18.5 mph 18.5 mph 35 % 0.0 in 0.0 W/m2 CLR
18:09 4.4 °F -9.3 °F 1031.4 in WNW 20.4 mph 20.4 mph 36 % 0.0 in 0.0 W/m2 CLR
18:14 4.4 °F -9.3 °F 1031.4 in NW 20.4 mph 20.4 mph 36 % 0.0 in 0.0 W/m2 CLR
18:19 4.4 °F -9.3 °F 1031.7 in WNW 19.3 mph 19.3 mph 36 % 0.0 in 0.0 W/m2 CLR
18:24 4.4 °F -9.0 °F 1031.7 in NW 24.1 mph 24.1 mph 37 % 0.0 in 0.0 W/m2 CLR
18:29 3.9 °F -9.5 °F 1031.7 in NW 22.2 mph 22.2 mph 37 % 0.0 in 0.0 W/m2 CLR
18:34 4.4 °F -8.7 °F 1031.7 in NW 24.1 mph 24.1 mph 38 % 0.0 in 0.0 W/m2 CLR
18:39 4.4 °F -8.3 °F 1031.7 in WNW 18.5 mph 18.5 mph 39 % 0.0 in 0.0 W/m2 CLR
18:44 4.4 °F -8.3 °F 1031.7 in NW 14.8 mph 14.8 mph 39 % 0.0 in 0.0 W/m2 CLR
18:49 4.4 °F -8.3 °F 1031.7 in WNW 20.4 mph 20.4 mph 39 % 0.0 in 0.0 W/m2 CLR
18:54 4.4 °F -8.3 °F 1031.7 in WNW 22.2 mph 22.2 mph 39 % 0.0 in 0.0 W/m2 CLR
18:59 3.9 °F -8.5 °F 1031.7 in WNW 20.4 mph 20.4 mph 40 % 0.0 in 0.0 W/m2 CLR
19:04 3.9 °F -8.5 °F 1032.1 in WSW 1.9 mph   40 % 0.0 in 0.0 W/m2 CLR
19:09 3.9 °F -8.5 °F 1032.1 in West 3.2 mph 3.7 mph 40 % 0.0 in 0.0 W/m2 CLR
19:14 3.9 °F -7.6 °F 1032.1 in WNW 16.7 mph 16.7 mph 43 % 0.0 in 0.0 W/m2 CLR
19:19 3.3 °F -7.8 °F 1032.1 in NW 20.4 mph 20.4 mph 44 % 0.0 in 0.0 W/m2 CLR
19:24 2.8 °F -8.0 °F 1032.1 in NW 18.5 mph 18.5 mph 45 % 0.0 in 0.0 W/m2 CLR
19:29 2.2 °F -8.5 °F 1032.4 in WNW 14.8 mph 14.8 mph 45 % 0.0 in 0.0 W/m2 CLR
19:34 1.7 °F -9.0 °F 1032.1 in WNW 13.0 mph 13.0 mph 45 % 0.0 in 0.0 W/m2 CLR
19:39 1.1 °F -9.5 °F 1032.1 in West 9.7 mph 9.7 mph 45 % 0.0 in 0.0 W/m2 CLR
19:44 1.1 °F -9.5 °F 1032.4 in West 13.0 mph 13.0 mph 45 % 0.0 in 0.0 W/m2 CLR
19:49 2.8 °F -7.7 °F 1032.4 in West 14.8 mph 14.8 mph 46 % 0.0 in 0.0 W/m2 CLR
19:54 2.8 °F -7.4 °F 1032.4 in WNW 5.6 mph 5.6 mph 47 % 0.0 in 0.0 W/m2 CLR
19:59 2.2 °F -7.7 °F 1032.4 in West 7.4 mph 8.4 mph 48 % 0.0 in 0.0 W/m2 CLR
20:04 1.7 °F -7.9 °F 1032.4 in West 11.1 mph 11.1 mph 49 % 0.0 in 0.0 W/m2 CLR
20:09 1.1 °F -8.4 °F 1032.4 in West 9.3 mph 9.3 mph 49 % 0.0 in 0.0 W/m2 CLR
20:14 0.6 °F -8.7 °F 1032.4 in West 14.8 mph 14.8 mph 50 % 0.0 in 0.0 W/m2 CLR
20:19 0.0 °F -8.9 °F 1032.7 in West 14.8 mph 14.8 mph 51 % 0.0 in 0.0 W/m2 CLR
20:24 0.0 °F -8.7 °F 1032.4 in WNW 18.5 mph 18.5 mph 52 % 0.0 in 0.0 W/m2 CLR
20:29 0.0 °F -8.7 °F 1032.4 in WNW 16.7 mph 16.7 mph 52 % 0.0 in 0.0 W/m2 CLR
20:34 0.6 °F -7.9 °F 1032.4 in West 22.5 mph 22.5 mph 53 % 0.0 in 0.0 W/m2 CLR
20:39 1.1 °F -7.2 °F 1032.4 in West 18.5 mph 18.5 mph 54 % 0.0 in 0.0 W/m2 CLR
20:44 1.7 °F -6.7 °F 1032.7 in West 25.7 mph 25.7 mph 54 % 0.0 in 0.0 W/m2 CLR
20:49 2.8 °F -5.4 °F 1032.7 in West 16.7 mph 16.7 mph 55 % 0.0 in 0.0 W/m2 CLR
20:55 3.3 °F -4.6 °F 1032.7 in West 14.8 mph 14.8 mph 56 % 0.0 in 0.0 W/m2 CLR
21:00 2.8 °F -4.9 °F 1032.7 in West 18.5 mph 18.5 mph 57 % 0.0 in 0.0 W/m2 CLR
21:05 2.8 °F -4.7 °F 1032.7 in West 19.3 mph 19.3 mph 58 % 0.0 in 0.0 W/m2 CLR
21:10 2.8 °F -4.4 °F 1032.7 in WNW 16.7 mph 16.7 mph 59 % 0.0 in 0.0 W/m2 CLR
21:15 2.8 °F -4.2 °F 1032.7 in WNW 20.4 mph 20.4 mph 60 % 0.0 in 0.0 W/m2 CLR
21:20 2.2 °F -4.6 °F 1032.7 in West 19.3 mph 19.3 mph 61 % 0.0 in 0.0 W/m2 CLR
21:25 2.2 °F -4.3 °F 1032.7 in WNW 22.2 mph 22.2 mph 62 % 0.0 in 0.0 W/m2 CLR
21:30 2.8 °F -3.6 °F 1032.7 in NW 20.4 mph 20.4 mph 63 % 0.0 in 0.0 W/m2 CLR
21:35 2.8 °F -3.6 °F 1032.7 in WNW 22.2 mph 22.2 mph 63 % 0.0 in 0.0 W/m2 CLR
21:40 3.3 °F -3.1 °F 1033.1 in WNW 22.5 mph 22.5 mph 63 % 0.0 in 0.0 W/m2 CLR
21:45 3.3 °F -2.8 °F 1033.1 in NW 20.4 mph 20.4 mph 64 % 0.0 in 0.0 W/m2 CLR
21:50 3.3 °F -2.8 °F 1033.1 in WNW 20.9 mph 20.9 mph 64 % 0.0 in 0.0 W/m2 CLR
21:55 2.8 °F -3.2 °F 1033.1 in WNW 20.4 mph 20.4 mph 65 % 0.0 in 0.0 W/m2 CLR
22:00 2.8 °F -3.2 °F 1033.1 in WNW 20.4 mph 20.4 mph 65 % 0.0 in 0.0 W/m2 CLR
22:05 2.8 °F -2.9 °F 1033.1 in WNW 20.4 mph 20.4 mph 66 % 0.0 in 0.0 W/m2 CLR
22:10 3.3 °F -2.4 °F 1033.1 in NW 20.4 mph 20.4 mph 66 % 0.0 in 0.0 W/m2 CLR
22:15 3.3 °F -2.4 °F 1033.1 in West 20.4 mph 20.4 mph 66 % 0.0 in 0.0 W/m2 CLR
22:20 2.8 °F -2.9 °F 1033.1 in WNW 20.9 mph 20.9 mph 66 % 0.0 in 0.0 W/m2 CLR
22:25 2.8 °F -2.9 °F 1033.4 in WNW 18.5 mph 18.5 mph 66 % 0.0 in 0.0 W/m2 CLR
22:30 2.8 °F -2.9 °F 1033.4 in West 14.8 mph 14.8 mph 66 % 0.0 in 0.0 W/m2 CLR
22:35 2.8 °F -2.7 °F 1033.4 in West 11.1 mph 11.1 mph 67 % 0.0 in 0.0 W/m2 CLR
22:40 2.2 °F -3.1 °F 1033.4 in WNW 9.7 mph 9.7 mph 68 % 0.0 in 0.0 W/m2 CLR
22:45 1.7 °F -3.6 °F 1033.4 in West 9.3 mph 9.3 mph 68 % 0.0 in 0.0 W/m2 CLR
22:50 1.1 °F -4.2 °F 1033.4 in West 13.0 mph 13.0 mph 68 % 0.0 in 0.0 W/m2 CLR
22:55 0.0 °F -5.2 °F 1033.7 in West 13.0 mph 13.0 mph 68 % 0.0 in 0.0 W/m2 CLR
23:00 0.0 °F -5.0 °F 1033.7 in West 13.0 mph 13.0 mph 69 % 0.0 in 0.0 W/m2 CLR
23:05 -0.6 °F -5.6 °F 1033.7 in West 9.7 mph 9.7 mph 69 % 0.0 in 0.0 W/m2 CLR
23:10 -1.1 °F -6.1 °F 1033.7 in West 11.1 mph 11.1 mph 69 % 0.0 in 0.0 W/m2 CLR
23:15 -1.1 °F -6.1 °F 1033.7 in West 5.6 mph 5.6 mph 69 % 0.0 in 0.0 W/m2 CLR
23:20 -1.7 °F -6.4 °F 1034.1 in West 9.3 mph 9.3 mph 70 % 0.0 in 0.0 W/m2 CLR
23:25 -2.2 °F -6.8 °F 1034.1 in West 9.3 mph 9.3 mph 71 % 0.0 in 0.0 W/m2 CLR
23:30 -2.2 °F -6.8 °F 1034.1 in WNW 9.3 mph 9.3 mph 71 % 0.0 in 0.0 W/m2 CLR
23:35 -2.2 °F -6.8 °F 1034.1 in West 11.1 mph 11.1 mph 71 % 0.0 in 0.0 W/m2 CLR
23:40 -2.8 °F -7.3 °F 1034.1 in West 7.4 mph 7.4 mph 71 % 0.0 in 0.0 W/m2 CLR
23:42 -2.8 °F -7.3 °F 1034.4 in WSW 6.4 mph 6.4 mph 71 % 0.0 in 0.0 W/m2 CLR
23:47 -2.8 °F -7.1 °F 1034.4 in WSW 7.4 mph 7.9 mph 72 % 0.0 in 0.0 W/m2 CLR
23:52 -2.8 °F -7.1 °F 1034.4 in West 5.6 mph 5.6 mph 72 % 0.0 in 0.0 W/m2 CLR
23:57 -2.8 °F -6.9 °F 1034.4 in WNW 9.3 mph 9.3 mph 73 % 0.0 in 0.0 W/m2 CLR
Lo Temps de Massalio
Compliments of Weather Underground - 1 mb